sensor_id;sensor_type;location;lat;lon;timestamp;P1;durP1;ratioP1;P2;durP2;ratioP2
13425;SDS011;6785;57.918;12.530;2023-05-14T00:01:17;7.43;;;4.87;;
13425;SDS011;6785;57.918;12.530;2023-05-14T00:03:44;7.30;;;4.73;;
13425;SDS011;6785;57.918;12.530;2023-05-14T00:06:10;7.27;;;5.17;;
13425;SDS011;6785;57.918;12.530;2023-05-14T00:08:39;6.57;;;4.67;;
13425;SDS011;6785;57.918;12.530;2023-05-14T00:11:05;5.23;;;4.57;;
13425;SDS011;6785;57.918;12.530;2023-05-14T00:13:33;5.73;;;4.70;;
13425;SDS011;6785;57.918;12.530;2023-05-14T00:16:00;7.97;;;4.47;;
13425;SDS011;6785;57.918;12.530;2023-05-14T00:18:27;5.70;;;4.97;;
13425;SDS011;6785;57.918;12.530;2023-05-14T00:20:54;5.77;;;4.93;;
13425;SDS011;6785;57.918;12.530;2023-05-14T00:23:21;7.83;;;5.10;;
13425;SDS011;6785;57.918;12.530;2023-05-14T00:25:49;5.40;;;4.47;;
13425;SDS011;6785;57.918;12.530;2023-05-14T00:28:16;7.73;;;4.87;;
13425;SDS011;6785;57.918;12.530;2023-05-14T00:30:43;10.77;;;4.90;;
13425;SDS011;6785;57.918;12.530;2023-05-14T00:33:10;6.33;;;5.00;;
13425;SDS011;6785;57.918;12.530;2023-05-14T00:35:36;6.77;;;4.63;;
13425;SDS011;6785;57.918;12.530;2023-05-14T00:38:03;4.90;;;4.40;;
13425;SDS011;6785;57.918;12.530;2023-05-14T00:40:30;8.87;;;5.80;;
13425;SDS011;6785;57.918;12.530;2023-05-14T00:42:58;6.53;;;4.77;;
13425;SDS011;6785;57.918;12.530;2023-05-14T00:45:25;10.33;;;4.60;;
13425;SDS011;6785;57.918;12.530;2023-05-14T00:47:52;5.27;;;4.40;;
13425;SDS011;6785;57.918;12.530;2023-05-14T00:50:19;8.17;;;4.50;;
13425;SDS011;6785;57.918;12.530;2023-05-14T00:52:46;5.07;;;4.27;;
13425;SDS011;6785;57.918;12.530;2023-05-14T00:55:13;5.93;;;4.87;;
13425;SDS011;6785;57.918;12.530;2023-05-14T00:57:41;5.03;;;4.20;;
13425;SDS011;6785;57.918;12.530;2023-05-14T01:00:10;8.13;;;4.57;;
13425;SDS011;6785;57.918;12.530;2023-05-14T01:02:37;7.33;;;4.40;;
13425;SDS011;6785;57.918;12.530;2023-05-14T01:05:04;5.70;;;4.87;;
13425;SDS011;6785;57.918;12.530;2023-05-14T01:07:35;10.73;;;4.93;;
13425;SDS011;6785;57.918;12.530;2023-05-14T01:10:12;7.13;;;4.67;;
13425;SDS011;6785;57.918;12.530;2023-05-14T01:12:44;8.47;;;5.20;;
13425;SDS011;6785;57.918;12.530;2023-05-14T01:15:27;6.90;;;4.70;;
13425;SDS011;6785;57.918;12.530;2023-05-14T01:17:59;8.23;;;4.70;;
13425;SDS011;6785;57.918;12.530;2023-05-14T01:20:29;7.07;;;5.47;;
13425;SDS011;6785;57.918;12.530;2023-05-14T01:22:57;5.17;;;4.70;;
13425;SDS011;6785;57.918;12.530;2023-05-14T01:25:24;7.20;;;5.00;;
13425;SDS011;6785;57.918;12.530;2023-05-14T01:27:51;5.50;;;5.00;;
13425;SDS011;6785;57.918;12.530;2023-05-14T01:30:28;6.90;;;5.67;;
13425;SDS011;6785;57.918;12.530;2023-05-14T01:32:58;7.63;;;5.23;;
13425;SDS011;6785;57.918;12.530;2023-05-14T01:35:28;6.33;;;5.03;;
13425;SDS011;6785;57.918;12.530;2023-05-14T01:37:56;8.27;;;5.77;;
13425;SDS011;6785;57.918;12.530;2023-05-14T01:40:27;6.67;;;5.70;;
13425;SDS011;6785;57.918;12.530;2023-05-14T01:42:54;6.43;;;5.80;;
13425;SDS011;6785;57.918;12.530;2023-05-14T01:45:22;6.33;;;5.60;;
13425;SDS011;6785;57.918;12.530;2023-05-14T01:47:49;6.90;;;5.60;;
13425;SDS011;6785;57.918;12.530;2023-05-14T01:50:16;9.73;;;5.77;;
13425;SDS011;6785;57.918;12.530;2023-05-14T01:52:43;8.17;;;6.00;;
13425;SDS011;6785;57.918;12.530;2023-05-14T01:55:13;7.87;;;6.03;;
13425;SDS011;6785;57.918;12.530;2023-05-14T01:57:40;7.20;;;5.57;;
13425;SDS011;6785;57.918;12.530;2023-05-14T02:00:07;7.13;;;5.63;;
13425;SDS011;6785;57.918;12.530;2023-05-14T02:02:34;9.53;;;5.50;;
13425;SDS011;6785;57.918;12.530;2023-05-14T02:05:01;6.73;;;6.03;;
13425;SDS011;6785;57.918;12.530;2023-05-14T02:07:28;6.40;;;5.80;;
13425;SDS011;6785;57.918;12.530;2023-05-14T02:09:55;7.63;;;5.77;;
13425;SDS011;6785;57.918;12.530;2023-05-14T02:12:23;11.10;;;5.60;;
13425;SDS011;6785;57.918;12.530;2023-05-14T02:14:50;7.97;;;5.67;;
13425;SDS011;6785;57.918;12.530;2023-05-14T02:17:17;11.43;;;5.57;;
13425;SDS011;6785;57.918;12.530;2023-05-14T02:19:43;9.40;;;5.70;;
13425;SDS011;6785;57.918;12.530;2023-05-14T02:22:10;8.77;;;5.67;;
13425;SDS011;6785;57.918;12.530;2023-05-14T02:24:37;6.43;;;5.73;;
13425;SDS011;6785;57.918;12.530;2023-05-14T02:27:05;10.83;;;5.80;;
13425;SDS011;6785;57.918;12.530;2023-05-14T02:29:33;6.40;;;5.40;;
13425;SDS011;6785;57.918;12.530;2023-05-14T02:32:00;7.17;;;5.90;;
13425;SDS011;6785;57.918;12.530;2023-05-14T02:34:27;7.07;;;5.77;;
13425;SDS011;6785;57.918;12.530;2023-05-14T02:36:53;7.13;;;5.97;;
13425;SDS011;6785;57.918;12.530;2023-05-14T02:39:20;7.03;;;6.33;;
13425;SDS011;6785;57.918;12.530;2023-05-14T02:41:47;7.30;;;5.97;;
13425;SDS011;6785;57.918;12.530;2023-05-14T02:44:14;9.27;;;6.40;;
13425;SDS011;6785;57.918;12.530;2023-05-14T02:46:42;9.50;;;5.80;;
13425;SDS011;6785;57.918;12.530;2023-05-14T02:49:09;6.37;;;5.70;;
13425;SDS011;6785;57.918;12.530;2023-05-14T02:51:36;7.77;;;5.77;;
13425;SDS011;6785;57.918;12.530;2023-05-14T02:54:03;8.87;;;5.70;;
13425;SDS011;6785;57.918;12.530;2023-05-14T02:56:30;6.97;;;6.27;;
13425;SDS011;6785;57.918;12.530;2023-05-14T02:58:56;8.30;;;6.07;;
13425;SDS011;6785;57.918;12.530;2023-05-14T03:01:23;10.77;;;5.60;;
13425;SDS011;6785;57.918;12.530;2023-05-14T03:03:51;10.00;;;6.30;;
13425;SDS011;6785;57.918;12.530;2023-05-14T03:06:18;10.43;;;6.07;;
13425;SDS011;6785;57.918;12.530;2023-05-14T03:08:44;9.90;;;5.70;;
13425;SDS011;6785;57.918;12.530;2023-05-14T03:11:11;8.30;;;6.33;;
13425;SDS011;6785;57.918;12.530;2023-05-14T03:13:38;6.93;;;6.20;;
13425;SDS011;6785;57.918;12.530;2023-05-14T03:16:05;7.23;;;6.20;;
13425;SDS011;6785;57.918;12.530;2023-05-14T03:18:32;7.80;;;6.07;;
13425;SDS011;6785;57.918;12.530;2023-05-14T03:21:01;9.87;;;6.50;;
13425;SDS011;6785;57.918;12.530;2023-05-14T03:23:28;8.67;;;6.30;;
13425;SDS011;6785;57.918;12.530;2023-05-14T03:25:55;7.40;;;6.07;;
13425;SDS011;6785;57.918;12.530;2023-05-14T03:28:22;9.53;;;6.23;;
13425;SDS011;6785;57.918;12.530;2023-05-14T03:30:49;8.10;;;6.97;;
13425;SDS011;6785;57.918;12.530;2023-05-14T03:33:16;9.07;;;6.67;;
13425;SDS011;6785;57.918;12.530;2023-05-14T03:35:43;9.53;;;6.53;;
13425;SDS011;6785;57.918;12.530;2023-05-14T03:38:11;7.10;;;6.40;;
13425;SDS011;6785;57.918;12.530;2023-05-14T03:40:38;9.53;;;6.47;;
13425;SDS011;6785;57.918;12.530;2023-05-14T03:43:05;7.20;;;6.23;;
13425;SDS011;6785;57.918;12.530;2023-05-14T03:45:32;8.73;;;6.10;;
13425;SDS011;6785;57.918;12.530;2023-05-14T03:47:58;6.87;;;6.17;;
13425;SDS011;6785;57.918;12.530;2023-05-14T03:50:25;6.70;;;5.27;;
13425;SDS011;6785;57.918;12.530;2023-05-14T03:52:52;6.97;;;6.23;;
13425;SDS011;6785;57.918;12.530;2023-05-14T03:55:20;10.73;;;6.60;;
13425;SDS011;6785;57.918;12.530;2023-05-14T03:57:47;9.53;;;5.83;;
13425;SDS011;6785;57.918;12.530;2023-05-14T04:00:14;8.13;;;6.73;;
13425;SDS011;6785;57.918;12.530;2023-05-14T04:02:41;8.97;;;5.90;;
13425;SDS011;6785;57.918;12.530;2023-05-14T04:05:08;9.47;;;6.50;;
13425;SDS011;6785;57.918;12.530;2023-05-14T04:07:35;10.63;;;6.70;;
13425;SDS011;6785;57.918;12.530;2023-05-14T04:10:01;7.07;;;6.37;;
13425;SDS011;6785;57.918;12.530;2023-05-14T04:12:30;7.27;;;6.20;;
13425;SDS011;6785;57.918;12.530;2023-05-14T04:14:56;7.83;;;7.00;;
13425;SDS011;6785;57.918;12.530;2023-05-14T04:17:23;8.87;;;5.57;;
13425;SDS011;6785;57.918;12.530;2023-05-14T04:19:50;7.37;;;6.00;;
13425;SDS011;6785;57.918;12.530;2023-05-14T04:22:17;7.00;;;6.30;;
13425;SDS011;6785;57.918;12.530;2023-05-14T04:24:44;6.80;;;6.10;;
13425;SDS011;6785;57.918;12.530;2023-05-14T04:27:12;11.47;;;6.20;;
13425;SDS011;6785;57.918;12.530;2023-05-14T04:29:41;7.10;;;5.90;;
13425;SDS011;6785;57.918;12.530;2023-05-14T04:32:08;7.73;;;5.93;;
13425;SDS011;6785;57.918;12.530;2023-05-14T04:34:36;14.90;;;6.70;;
13425;SDS011;6785;57.918;12.530;2023-05-14T04:37:03;8.50;;;5.97;;
13425;SDS011;6785;57.918;12.530;2023-05-14T04:39:30;8.77;;;6.60;;
13425;SDS011;6785;57.918;12.530;2023-05-14T04:41:56;10.83;;;6.10;;
13425;SDS011;6785;57.918;12.530;2023-05-14T04:44:23;6.53;;;5.73;;
13425;SDS011;6785;57.918;12.530;2023-05-14T04:46:51;7.47;;;5.57;;
13425;SDS011;6785;57.918;12.530;2023-05-14T04:49:18;6.80;;;6.10;;
13425;SDS011;6785;57.918;12.530;2023-05-14T04:51:45;6.20;;;5.60;;
13425;SDS011;6785;57.918;12.530;2023-05-14T04:54:12;8.47;;;6.20;;
13425;SDS011;6785;57.918;12.530;2023-05-14T04:56:39;9.93;;;6.13;;
13425;SDS011;6785;57.918;12.530;2023-05-14T04:59:05;8.60;;;5.40;;
13425;SDS011;6785;57.918;12.530;2023-05-14T05:01:32;8.93;;;5.50;;
13425;SDS011;6785;57.918;12.530;2023-05-14T05:04:00;5.97;;;5.37;;
13425;SDS011;6785;57.918;12.530;2023-05-14T05:06:27;7.67;;;5.90;;
13425;SDS011;6785;57.918;12.530;2023-05-14T05:08:54;6.80;;;5.43;;
13425;SDS011;6785;57.918;12.530;2023-05-14T05:11:21;8.00;;;6.17;;
13425;SDS011;6785;57.918;12.530;2023-05-14T05:13:48;6.80;;;4.90;;
13425;SDS011;6785;57.918;12.530;2023-05-14T05:16:15;6.63;;;5.13;;
13425;SDS011;6785;57.918;12.530;2023-05-14T05:18:41;8.30;;;5.10;;
13425;SDS011;6785;57.918;12.530;2023-05-14T05:21:10;7.63;;;5.67;;
13425;SDS011;6785;57.918;12.530;2023-05-14T05:23:37;10.93;;;5.77;;
13425;SDS011;6785;57.918;12.530;2023-05-14T05:26:04;10.37;;;5.30;;
13425;SDS011;6785;57.918;12.530;2023-05-14T05:28:31;10.77;;;5.23;;
13425;SDS011;6785;57.918;12.530;2023-05-14T05:30:58;8.90;;;5.17;;
13425;SDS011;6785;57.918;12.530;2023-05-14T05:33:24;6.97;;;4.90;;
13425;SDS011;6785;57.918;12.530;2023-05-14T05:35:51;9.73;;;5.47;;
13425;SDS011;6785;57.918;12.530;2023-05-14T05:38:19;10.47;;;4.90;;
13425;SDS011;6785;57.918;12.530;2023-05-14T05:40:46;12.67;;;5.17;;
13425;SDS011;6785;57.918;12.530;2023-05-14T05:43:13;7.90;;;5.20;;
13425;SDS011;6785;57.918;12.530;2023-05-14T05:45:40;10.30;;;4.90;;
13425;SDS011;6785;57.918;12.530;2023-05-14T05:48:07;7.20;;;4.80;;
13425;SDS011;6785;57.918;12.530;2023-05-14T05:50:34;7.00;;;4.93;;
13425;SDS011;6785;57.918;12.530;2023-05-14T05:53:01;7.27;;;5.10;;
13425;SDS011;6785;57.918;12.530;2023-05-14T05:55:29;7.37;;;5.63;;
13425;SDS011;6785;57.918;12.530;2023-05-14T05:57:55;6.07;;;5.33;;
13425;SDS011;6785;57.918;12.530;2023-05-14T06:00:22;10.60;;;5.13;;
13425;SDS011;6785;57.918;12.530;2023-05-14T06:02:49;6.77;;;4.60;;
13425;SDS011;6785;57.918;12.530;2023-05-14T06:05:16;7.10;;;5.20;;
13425;SDS011;6785;57.918;12.530;2023-05-14T06:07:43;7.47;;;4.77;;
13425;SDS011;6785;57.918;12.530;2023-05-14T06:10:10;4.60;;;4.20;;
13425;SDS011;6785;57.918;12.530;2023-05-14T06:12:38;6.20;;;4.50;;
13425;SDS011;6785;57.918;12.530;2023-05-14T06:15:05;9.27;;;5.03;;
13425;SDS011;6785;57.918;12.530;2023-05-14T06:17:33;7.37;;;4.53;;
13425;SDS011;6785;57.918;12.530;2023-05-14T06:19:59;5.53;;;4.70;;
13425;SDS011;6785;57.918;12.530;2023-05-14T06:22:26;6.53;;;4.87;;
13425;SDS011;6785;57.918;12.530;2023-05-14T06:24:53;7.33;;;4.93;;
13425;SDS011;6785;57.918;12.530;2023-05-14T06:27:20;12.53;;;5.50;;
13425;SDS011;6785;57.918;12.530;2023-05-14T06:29:48;5.77;;;5.20;;
13425;SDS011;6785;57.918;12.530;2023-05-14T06:32:14;12.03;;;4.97;;
13425;SDS011;6785;57.918;12.530;2023-05-14T06:34:41;6.60;;;4.67;;
13425;SDS011;6785;57.918;12.530;2023-05-14T06:37:08;8.33;;;5.10;;
13425;SDS011;6785;57.918;12.530;2023-05-14T06:39:35;6.67;;;5.07;;
13425;SDS011;6785;57.918;12.530;2023-05-14T06:42:02;8.83;;;4.63;;
13425;SDS011;6785;57.918;12.530;2023-05-14T06:44:30;4.77;;;4.07;;
13425;SDS011;6785;57.918;12.530;2023-05-14T06:46:58;6.17;;;4.23;;
13425;SDS011;6785;57.918;12.530;2023-05-14T06:49:25;8.20;;;4.53;;
13425;SDS011;6785;57.918;12.530;2023-05-14T06:51:51;6.07;;;4.17;;
13425;SDS011;6785;57.918;12.530;2023-05-14T06:54:18;7.93;;;4.37;;
13425;SDS011;6785;57.918;12.530;2023-05-14T06:56:45;6.63;;;3.97;;
13425;SDS011;6785;57.918;12.530;2023-05-14T06:59:12;6.43;;;3.67;;
13425;SDS011;6785;57.918;12.530;2023-05-14T07:01:38;3.53;;;3.10;;
13425;SDS011;6785;57.918;12.530;2023-05-14T07:04:07;6.73;;;3.10;;
13425;SDS011;6785;57.918;12.530;2023-05-14T07:06:34;3.90;;;3.10;;
13425;SDS011;6785;57.918;12.530;2023-05-14T07:09:01;5.40;;;3.17;;
13425;SDS011;6785;57.918;12.530;2023-05-14T07:11:28;4.07;;;3.03;;
13425;SDS011;6785;57.918;12.530;2023-05-14T07:13:54;3.00;;;2.70;;
13425;SDS011;6785;57.918;12.530;2023-05-14T07:16:21;3.80;;;2.70;;
13425;SDS011;6785;57.918;12.530;2023-05-14T07:18:48;5.00;;;2.90;;
13425;SDS011;6785;57.918;12.530;2023-05-14T07:21:16;4.77;;;2.73;;
13425;SDS011;6785;57.918;12.530;2023-05-14T07:23:43;4.53;;;2.90;;
13425;SDS011;6785;57.918;12.530;2023-05-14T07:26:10;5.20;;;3.30;;
13425;SDS011;6785;57.918;12.530;2023-05-14T07:28:36;7.80;;;2.90;;
13425;SDS011;6785;57.918;12.530;2023-05-14T07:31:03;3.67;;;3.03;;
13425;SDS011;6785;57.918;12.530;2023-05-14T07:33:33;6.27;;;2.90;;
13425;SDS011;6785;57.918;12.530;2023-05-14T07:36:00;4.03;;;2.60;;
13425;SDS011;6785;57.918;12.530;2023-05-14T07:38:30;4.00;;;2.77;;
13425;SDS011;6785;57.918;12.530;2023-05-14T07:40:57;5.93;;;2.77;;
13425;SDS011;6785;57.918;12.530;2023-05-14T07:43:24;3.17;;;2.87;;
13425;SDS011;6785;57.918;12.530;2023-05-14T07:45:51;7.83;;;3.03;;
13425;SDS011;6785;57.918;12.530;2023-05-14T07:48:17;5.10;;;2.83;;
13425;SDS011;6785;57.918;12.530;2023-05-14T07:50:44;4.77;;;2.90;;
13425;SDS011;6785;57.918;12.530;2023-05-14T07:53:11;6.23;;;3.20;;
13425;SDS011;6785;57.918;12.530;2023-05-14T07:55:39;4.73;;;3.13;;
13425;SDS011;6785;57.918;12.530;2023-05-14T07:58:08;6.57;;;2.70;;
13425;SDS011;6785;57.918;12.530;2023-05-14T08:00:34;4.70;;;2.40;;
13425;SDS011;6785;57.918;12.530;2023-05-14T08:03:01;3.30;;;2.77;;
13425;SDS011;6785;57.918;12.530;2023-05-14T08:05:29;7.10;;;3.00;;
13425;SDS011;6785;57.918;12.530;2023-05-14T08:07:56;4.43;;;2.90;;
13425;SDS011;6785;57.918;12.530;2023-05-14T08:10:23;3.80;;;2.77;;
13425;SDS011;6785;57.918;12.530;2023-05-14T08:12:52;7.10;;;3.30;;
13425;SDS011;6785;57.918;12.530;2023-05-14T08:15:19;5.80;;;2.80;;
13425;SDS011;6785;57.918;12.530;2023-05-14T08:17:45;4.13;;;3.00;;
13425;SDS011;6785;57.918;12.530;2023-05-14T08:20:12;3.30;;;2.83;;
13425;SDS011;6785;57.918;12.530;2023-05-14T08:22:39;4.03;;;2.83;;
13425;SDS011;6785;57.918;12.530;2023-05-14T08:25:06;5.30;;;2.80;;
13425;SDS011;6785;57.918;12.530;2023-05-14T08:27:33;5.70;;;3.37;;
13425;SDS011;6785;57.918;12.530;2023-05-14T08:30:01;5.20;;;3.30;;
13425;SDS011;6785;57.918;12.530;2023-05-14T08:32:28;4.67;;;2.60;;
13425;SDS011;6785;57.918;12.530;2023-05-14T08:34:55;3.60;;;2.70;;
13425;SDS011;6785;57.918;12.530;2023-05-14T08:37:22;6.53;;;3.00;;
13425;SDS011;6785;57.918;12.530;2023-05-14T08:39:49;8.60;;;3.23;;
13425;SDS011;6785;57.918;12.530;2023-05-14T08:42:15;3.30;;;2.63;;
13425;SDS011;6785;57.918;12.530;2023-05-14T08:44:47;3.67;;;2.80;;
13425;SDS011;6785;57.918;12.530;2023-05-14T08:47:16;2.87;;;2.60;;
13425;SDS011;6785;57.918;12.530;2023-05-14T08:49:46;8.30;;;3.20;;
13425;SDS011;6785;57.918;12.530;2023-05-14T08:52:17;4.40;;;2.80;;
13425;SDS011;6785;57.918;12.530;2023-05-14T08:54:47;5.13;;;3.23;;
13425;SDS011;6785;57.918;12.530;2023-05-14T08:57:17;5.30;;;3.30;;
13425;SDS011;6785;57.918;12.530;2023-05-14T08:59:48;5.20;;;3.27;;
13425;SDS011;6785;57.918;12.530;2023-05-14T09:02:16;5.40;;;3.17;;
13425;SDS011;6785;57.918;12.530;2023-05-14T09:04:47;8.47;;;3.30;;
13425;SDS011;6785;57.918;12.530;2023-05-14T09:07:17;7.83;;;3.10;;
13425;SDS011;6785;57.918;12.530;2023-05-14T09:09:44;3.70;;;3.17;;
13425;SDS011;6785;57.918;12.530;2023-05-14T09:12:12;3.87;;;2.93;;
13425;SDS011;6785;57.918;12.530;2023-05-14T09:14:39;6.57;;;3.13;;
13425;SDS011;6785;57.918;12.530;2023-05-14T09:17:07;7.20;;;2.90;;
13425;SDS011;6785;57.918;12.530;2023-05-14T09:19:37;7.53;;;3.13;;
13425;SDS011;6785;57.918;12.530;2023-05-14T09:22:07;4.23;;;2.80;;
13425;SDS011;6785;57.918;12.530;2023-05-14T09:24:34;3.57;;;2.80;;
13425;SDS011;6785;57.918;12.530;2023-05-14T09:27:03;7.47;;;3.23;;
13425;SDS011;6785;57.918;12.530;2023-05-14T09:29:31;5.13;;;2.93;;
13425;SDS011;6785;57.918;12.530;2023-05-14T09:31:59;7.50;;;2.80;;
13425;SDS011;6785;57.918;12.530;2023-05-14T09:34:30;7.33;;;3.47;;
13425;SDS011;6785;57.918;12.530;2023-05-14T09:37:00;7.20;;;3.10;;
13425;SDS011;6785;57.918;12.530;2023-05-14T09:39:27;8.73;;;3.10;;
13425;SDS011;6785;57.918;12.530;2023-05-14T09:41:55;5.20;;;2.70;;
13425;SDS011;6785;57.918;12.530;2023-05-14T09:44:22;5.87;;;2.80;;
13425;SDS011;6785;57.918;12.530;2023-05-14T09:46:51;5.17;;;2.90;;
13425;SDS011;6785;57.918;12.530;2023-05-14T09:49:18;5.00;;;3.13;;
13425;SDS011;6785;57.918;12.530;2023-05-14T09:51:45;5.77;;;3.00;;
13425;SDS011;6785;57.918;12.530;2023-05-14T09:54:14;4.00;;;3.00;;
13425;SDS011;6785;57.918;12.530;2023-05-14T09:56:41;8.67;;;3.10;;
13425;SDS011;6785;57.918;12.530;2023-05-14T09:59:09;4.67;;;2.90;;
13425;SDS011;6785;57.918;12.530;2023-05-14T10:01:36;9.00;;;3.07;;
13425;SDS011;6785;57.918;12.530;2023-05-14T10:04:05;6.57;;;3.20;;
13425;SDS011;6785;57.918;12.530;2023-05-14T10:06:35;4.70;;;3.10;;
13425;SDS011;6785;57.918;12.530;2023-05-14T10:09:04;6.10;;;2.90;;
13425;SDS011;6785;57.918;12.530;2023-05-14T10:11:37;5.33;;;3.17;;
13425;SDS011;6785;57.918;12.530;2023-05-14T10:14:10;9.37;;;3.23;;
13425;SDS011;6785;57.918;12.530;2023-05-14T10:16:43;6.27;;;3.10;;
13425;SDS011;6785;57.918;12.530;2023-05-14T10:19:14;4.70;;;2.97;;
13425;SDS011;6785;57.918;12.530;2023-05-14T10:21:43;5.27;;;3.20;;
13425;SDS011;6785;57.918;12.530;2023-05-14T10:24:12;3.30;;;2.63;;
13425;SDS011;6785;57.918;12.530;2023-05-14T10:26:41;2.97;;;2.70;;
13425;SDS011;6785;57.918;12.530;2023-05-14T10:29:08;6.40;;;3.20;;
13425;SDS011;6785;57.918;12.530;2023-05-14T10:31:45;3.13;;;2.73;;
13425;SDS011;6785;57.918;12.530;2023-05-14T10:34:32;3.57;;;2.90;;
13425;SDS011;6785;57.918;12.530;2023-05-14T10:37:01;3.10;;;2.80;;
13425;SDS011;6785;57.918;12.530;2023-05-14T10:39:39;6.47;;;2.80;;
13425;SDS011;6785;57.918;12.530;2023-05-14T10:42:09;4.80;;;2.83;;
13425;SDS011;6785;57.918;12.530;2023-05-14T10:44:37;5.10;;;3.27;;
13425;SDS011;6785;57.918;12.530;2023-05-14T10:47:08;6.40;;;3.23;;
13425;SDS011;6785;57.918;12.530;2023-05-14T10:49:36;9.93;;;2.63;;
13425;SDS011;6785;57.918;12.530;2023-05-14T10:52:03;5.73;;;2.43;;
13425;SDS011;6785;57.918;12.530;2023-05-14T10:54:34;4.37;;;2.27;;
13425;SDS011;6785;57.918;12.530;2023-05-14T10:57:01;3.30;;;2.43;;
13425;SDS011;6785;57.918;12.530;2023-05-14T10:59:29;4.30;;;2.33;;
13425;SDS011;6785;57.918;12.530;2023-05-14T11:01:59;4.17;;;2.17;;
13425;SDS011;6785;57.918;12.530;2023-05-14T11:04:30;7.20;;;2.37;;
13425;SDS011;6785;57.918;12.530;2023-05-14T11:06:57;3.90;;;2.43;;
13425;SDS011;6785;57.918;12.530;2023-05-14T11:09:25;3.50;;;2.10;;
13425;SDS011;6785;57.918;12.530;2023-05-14T11:11:52;5.40;;;2.70;;
13425;SDS011;6785;57.918;12.530;2023-05-14T11:14:19;5.40;;;2.53;;
13425;SDS011;6785;57.918;12.530;2023-05-14T11:16:47;3.47;;;2.30;;
13425;SDS011;6785;57.918;12.530;2023-05-14T11:19:15;4.03;;;2.50;;
13425;SDS011;6785;57.918;12.530;2023-05-14T11:21:47;4.87;;;2.60;;
13425;SDS011;6785;57.918;12.530;2023-05-14T11:24:13;2.83;;;2.30;;
13425;SDS011;6785;57.918;12.530;2023-05-14T11:26:40;2.63;;;2.00;;
13425;SDS011;6785;57.918;12.530;2023-05-14T11:29:07;4.10;;;2.10;;
13425;SDS011;6785;57.918;12.530;2023-05-14T11:31:35;3.10;;;2.23;;
13425;SDS011;6785;57.918;12.530;2023-05-14T11:34:03;3.37;;;2.27;;
13425;SDS011;6785;57.918;12.530;2023-05-14T11:36:34;4.40;;;2.10;;
13425;SDS011;6785;57.918;12.530;2023-05-14T11:39:01;5.20;;;2.40;;
13425;SDS011;6785;57.918;12.530;2023-05-14T11:41:28;9.03;;;2.60;;
13425;SDS011;6785;57.918;12.530;2023-05-14T11:43:55;5.23;;;2.87;;
13425;SDS011;6785;57.918;12.530;2023-05-14T11:46:22;2.83;;;2.13;;
13425;SDS011;6785;57.918;12.530;2023-05-14T11:48:50;8.20;;;2.83;;
13425;SDS011;6785;57.918;12.530;2023-05-14T11:51:18;3.17;;;2.60;;
13425;SDS011;6785;57.918;12.530;2023-05-14T11:53:47;4.57;;;2.57;;
13425;SDS011;6785;57.918;12.530;2023-05-14T11:56:13;6.93;;;2.90;;
13425;SDS011;6785;57.918;12.530;2023-05-14T11:58:45;3.30;;;2.63;;
13425;SDS011;6785;57.918;12.530;2023-05-14T12:01:14;5.33;;;3.10;;
13425;SDS011;6785;57.918;12.530;2023-05-14T12:03:41;3.85;;;2.63;;
13425;SDS011;6785;57.918;12.530;2023-05-14T12:06:07;4.93;;;2.53;;
13425;SDS011;6785;57.918;12.530;2023-05-14T12:08:36;3.10;;;2.53;;
13425;SDS011;6785;57.918;12.530;2023-05-14T12:11:02;6.50;;;2.78;;
13425;SDS011;6785;57.918;12.530;2023-05-14T12:13:30;5.47;;;2.67;;
13425;SDS011;6785;57.918;12.530;2023-05-14T12:15:58;3.20;;;2.60;;
13425;SDS011;6785;57.918;12.530;2023-05-14T12:18:26;8.60;;;3.17;;
13425;SDS011;6785;57.918;12.530;2023-05-14T12:20:54;2.80;;;2.53;;
13425;SDS011;6785;57.918;12.530;2023-05-14T12:23:24;3.55;;;2.45;;
13425;SDS011;6785;57.918;12.530;2023-05-14T12:25:53;4.18;;;3.03;;
13425;SDS011;6785;57.918;12.530;2023-05-14T12:28:21;5.55;;;2.47;;
13425;SDS011;6785;57.918;12.530;2023-05-14T12:30:54;6.33;;;2.70;;
13425;SDS011;6785;57.918;12.530;2023-05-14T12:33:21;5.17;;;2.87;;
13425;SDS011;6785;57.918;12.530;2023-05-14T12:35:48;5.55;;;3.03;;
13425;SDS011;6785;57.918;12.530;2023-05-14T12:38:15;5.50;;;2.60;;
13425;SDS011;6785;57.918;12.530;2023-05-14T12:40:42;5.17;;;2.73;;
13425;SDS011;6785;57.918;12.530;2023-05-14T12:43:10;5.30;;;2.70;;
13425;SDS011;6785;57.918;12.530;2023-05-14T12:45:37;3.57;;;2.20;;
13425;SDS011;6785;57.918;12.530;2023-05-14T12:48:04;6.13;;;2.40;;
13425;SDS011;6785;57.918;12.530;2023-05-14T12:50:31;3.90;;;2.37;;
13425;SDS011;6785;57.918;12.530;2023-05-14T12:52:58;7.07;;;2.30;;
13425;SDS011;6785;57.918;12.530;2023-05-14T12:55:24;6.03;;;2.30;;
13425;SDS011;6785;57.918;12.530;2023-05-14T12:57:51;4.23;;;2.30;;
13425;SDS011;6785;57.918;12.530;2023-05-14T13:00:20;4.23;;;2.47;;
13425;SDS011;6785;57.918;12.530;2023-05-14T13:02:47;4.00;;;2.40;;
13425;SDS011;6785;57.918;12.530;2023-05-14T13:05:14;3.20;;;2.30;;
13425;SDS011;6785;57.918;12.530;2023-05-14T13:07:40;3.83;;;2.73;;
13425;SDS011;6785;57.918;12.530;2023-05-14T13:10:07;2.40;;;2.20;;
13425;SDS011;6785;57.918;12.530;2023-05-14T13:12:35;5.57;;;2.60;;
13425;SDS011;6785;57.918;12.530;2023-05-14T13:15:02;3.63;;;2.53;;
13425;SDS011;6785;57.918;12.530;2023-05-14T13:17:31;6.77;;;2.37;;
13425;SDS011;6785;57.918;12.530;2023-05-14T13:19:58;11.20;;;2.50;;
13425;SDS011;6785;57.918;12.530;2023-05-14T13:22:24;3.70;;;2.53;;
13425;SDS011;6785;57.918;12.530;2023-05-14T13:24:51;5.27;;;2.70;;
13425;SDS011;6785;57.918;12.530;2023-05-14T13:27:18;6.40;;;2.60;;
13425;SDS011;6785;57.918;12.530;2023-05-14T13:29:45;5.77;;;2.50;;
13425;SDS011;6785;57.918;12.530;2023-05-14T13:32:11;2.70;;;2.50;;
13425;SDS011;6785;57.918;12.530;2023-05-14T13:34:39;5.53;;;2.47;;
13425;SDS011;6785;57.918;12.530;2023-05-14T13:37:08;3.43;;;2.27;;
13425;SDS011;6785;57.918;12.530;2023-05-14T13:39:35;5.10;;;2.40;;
13425;SDS011;6785;57.918;12.530;2023-05-14T13:42:01;6.00;;;2.30;;
13425;SDS011;6785;57.918;12.530;2023-05-14T13:44:28;5.10;;;2.43;;
13425;SDS011;6785;57.918;12.530;2023-05-14T13:46:55;6.93;;;2.63;;
13425;SDS011;6785;57.918;12.530;2023-05-14T13:49:22;3.80;;;2.33;;
13425;SDS011;6785;57.918;12.530;2023-05-14T13:51:50;4.30;;;2.30;;
13425;SDS011;6785;57.918;12.530;2023-05-14T13:54:17;6.47;;;2.70;;
13425;SDS011;6785;57.918;12.530;2023-05-14T13:56:43;4.13;;;2.43;;
13425;SDS011;6785;57.918;12.530;2023-05-14T13:59:10;3.80;;;2.60;;
13425;SDS011;6785;57.918;12.530;2023-05-14T14:01:37;3.73;;;2.40;;
13425;SDS011;6785;57.918;12.530;2023-05-14T14:04:05;2.87;;;2.20;;
13425;SDS011;6785;57.918;12.530;2023-05-14T14:06:32;2.67;;;2.47;;
13425;SDS011;6785;57.918;12.530;2023-05-14T14:09:00;5.00;;;2.27;;
13425;SDS011;6785;57.918;12.530;2023-05-14T14:11:27;7.73;;;2.50;;
13425;SDS011;6785;57.918;12.530;2023-05-14T14:13:54;3.73;;;2.40;;
13425;SDS011;6785;57.918;12.530;2023-05-14T14:16:21;2.73;;;2.47;;
13425;SDS011;6785;57.918;12.530;2023-05-14T14:18:47;3.00;;;2.50;;
13425;SDS011;6785;57.918;12.530;2023-05-14T14:21:15;3.43;;;2.37;;
13425;SDS011;6785;57.918;12.530;2023-05-14T14:23:42;4.83;;;2.40;;
13425;SDS011;6785;57.918;12.530;2023-05-14T14:26:10;3.83;;;2.60;;
13425;SDS011;6785;57.918;12.530;2023-05-14T14:28:37;4.90;;;3.53;;
13425;SDS011;6785;57.918;12.530;2023-05-14T14:31:04;6.80;;;3.10;;
13425;SDS011;6785;57.918;12.530;2023-05-14T14:33:31;2.77;;;2.47;;
13425;SDS011;6785;57.918;12.530;2023-05-14T14:35:57;5.10;;;2.60;;
13425;SDS011;6785;57.918;12.530;2023-05-14T14:38:24;3.53;;;2.60;;
13425;SDS011;6785;57.918;12.530;2023-05-14T14:40:51;3.50;;;2.30;;
13425;SDS011;6785;57.918;12.530;2023-05-14T14:43:19;2.93;;;2.57;;
13425;SDS011;6785;57.918;12.530;2023-05-14T14:45:46;5.17;;;2.57;;
13425;SDS011;6785;57.918;12.530;2023-05-14T14:48:25;3.10;;;2.80;;
13425;SDS011;6785;57.918;12.530;2023-05-14T14:50:55;7.13;;;3.20;;